createdAt,value
2023-02-06T00:01:29.587Z,32.80
2023-02-06T00:03:17.354Z,38.80
2023-02-06T00:04:51.980Z,40.50
2023-02-06T00:06:20.461Z,43.60
2023-02-06T00:07:51.489Z,38.20
2023-02-06T00:11:32.243Z,42.70
2023-02-06T00:13:19.090Z,46.00
2023-02-06T00:15:12.586Z,33.70
2023-02-06T00:18:30.072Z,41.40
2023-02-06T00:27:10.778Z,29.90
2023-02-06T00:29:45.631Z,35.10
2023-02-06T00:32:26.670Z,44.30
2023-02-06T00:33:55.656Z,39.40
2023-02-06T00:39:26.915Z,37.00
2023-02-06T00:41:30.604Z,45.50
2023-02-06T00:46:04.043Z,43.40
2023-02-06T00:49:13.480Z,39.80
2023-02-06T00:51:33.866Z,43.00
2023-02-06T00:53:36.567Z,39.60
2023-02-06T00:55:08.466Z,45.00
2023-02-06T00:57:07.502Z,43.50
2023-02-06T01:00:29.576Z,37.20
2023-02-06T01:02:03.505Z,42.70
2023-02-06T01:04:20.506Z,42.10
2023-02-06T01:06:51.860Z,38.20
2023-02-06T01:11:36.981Z,44.50
2023-02-06T01:14:58.938Z,45.90
2023-02-06T01:23:43.295Z,38.50
2023-02-06T01:26:34.790Z,47.10
2023-02-06T01:28:04.711Z,43.10
2023-02-06T01:31:07.468Z,44.40
2023-02-06T01:32:34.455Z,51.20
2023-02-06T01:34:04.709Z,39.20
2023-02-06T01:41:49.744Z,48.20
2023-02-06T01:44:41.350Z,41.30
2023-02-06T01:47:03.020Z,46.60
2023-02-06T01:55:20.955Z,42.60
2023-02-06T01:57:14.381Z,42.30
2023-02-06T01:59:33.393Z,38.80
2023-02-06T02:01:24.241Z,49.00
2023-02-06T02:04:25.285Z,39.00
2023-02-06T02:06:13.148Z,49.80
2023-02-06T02:09:52.545Z,35.60
2023-02-06T02:16:08.386Z,36.40
2023-02-06T02:18:05.286Z,38.90
2023-02-06T02:19:36.473Z,48.30
2023-02-06T02:25:31.077Z,38.50
2023-02-06T02:26:59.387Z,38.30
2023-02-06T02:30:31.516Z,40.20
2023-02-06T02:33:21.793Z,36.90
2023-02-06T02:36:02.510Z,41.80
2023-02-06T02:38:26.800Z,43.10
2023-02-06T02:41:03.363Z,43.90
2023-02-06T02:43:43.247Z,47.20
2023-02-06T02:46:03.949Z,54.90
2023-02-06T02:52:27.691Z,51.10
2023-02-06T02:54:36.232Z,48.40
2023-02-06T02:56:48.105Z,48.90
2023-02-06T02:58:49.939Z,51.70
2023-02-06T03:02:36.660Z,60.90
2023-02-06T03:04:36.442Z,68.60
2023-02-06T03:06:35.721Z,68.00
2023-02-06T03:11:16.036Z,77.50
2023-02-06T03:13:15.540Z,75.20
2023-02-06T03:15:54.493Z,72.40
2023-02-06T03:18:21.615Z,79.40
2023-02-06T03:19:48.545Z,63.10
2023-02-06T03:23:30.693Z,71.30
2023-02-06T03:25:54.292Z,56.30
2023-02-06T03:28:19.682Z,60.00
2023-02-06T03:30:12.502Z,65.60
2023-02-06T03:33:32.241Z,64.20
2023-02-06T03:35:28.825Z,58.80
2023-02-06T03:38:19.361Z,63.70
2023-02-06T03:39:49.212Z,41.60
2023-02-06T03:41:24.923Z,51.10
2023-02-06T03:43:23.307Z,49.50
2023-02-06T03:48:24.186Z,65.60
2023-02-06T03:50:15.597Z,62.10
2023-02-06T03:51:44.228Z,64.00
2023-02-06T03:55:10.089Z,60.60
2023-02-06T03:57:10.587Z,80.30
2023-02-06T03:58:59.836Z,55.10
2023-02-06T04:00:49.565Z,63.00
2023-02-06T04:03:41.946Z,83.40
2023-02-06T04:06:00.845Z,74.80
2023-02-06T04:08:58.781Z,79.70
2023-02-06T04:12:36.264Z,113.30
2023-02-06T04:14:13.117Z,72.30
2023-02-06T04:18:10.705Z,114.60
2023-02-06T04:20:10.622Z,75.70
2023-02-06T04:22:31.950Z,79.00
2023-02-06T04:24:01.814Z,133.20
2023-02-06T04:26:59.097Z,104.00
2023-02-06T04:28:35.754Z,114.00
2023-02-06T04:34:16.561Z,93.90
2023-02-06T04:35:44.818Z,100.20
2023-02-06T04:41:26.770Z,108.20
2023-02-06T04:45:45.796Z,85.50
2023-02-06T04:48:25.222Z,87.60
2023-02-06T04:51:21.616Z,87.60
2023-02-06T04:53:21.740Z,96.10
2023-02-06T04:55:37.886Z,150.00
2023-02-06T04:57:08.905Z,111.30
2023-02-06T04:58:39.339Z,69.40
2023-02-06T05:06:59.171Z,54.20
2023-02-06T05:08:48.553Z,74.10
2023-02-06T05:12:22.866Z,49.10
2023-02-06T05:14:11.021Z,89.30
2023-02-06T05:20:09.157Z,53.20
2023-02-06T05:22:30.711Z,45.00
2023-02-06T05:24:20.382Z,29.50
2023-02-06T05:26:20.423Z,66.30
2023-02-06T05:27:55.259Z,83.30
2023-02-06T05:29:52.070Z,104.60
2023-02-06T05:33:00.947Z,56.70
2023-02-06T05:35:30.262Z,58.50
2023-02-06T05:37:23.590Z,66.10
2023-02-06T05:43:38.024Z,33.30
2023-02-06T05:45:28.462Z,55.10
2023-02-06T05:46:08.088Z,44.70
2023-02-06T05:47:07.393Z,46.70
2023-02-06T05:48:07.385Z,69.90
2023-02-06T05:50:03.165Z,68.00
2023-02-06T05:53:30.838Z,76.60
2023-02-06T05:56:28.815Z,117.40
2023-02-06T05:57:56.163Z,53.10
2023-02-06T06:01:45.140Z,65.70
2023-02-06T06:12:51.564Z,81.70
2023-02-06T06:16:19.362Z,73.40
2023-02-06T06:22:08.148Z,79.00
2023-02-06T06:24:11.136Z,101.50
2023-02-06T06:29:09.781Z,93.50
2023-02-06T06:34:10.561Z,111.70
2023-02-06T06:35:59.937Z,145.70
2023-02-06T06:39:24.610Z,132.00
2023-02-06T06:41:27.079Z,68.80
2023-02-06T06:44:48.406Z,79.60
2023-02-06T06:52:26.234Z,76.80
2023-02-06T06:56:11.915Z,81.00
2023-02-06T06:58:08.423Z,75.40
2023-02-06T06:59:31.064Z,74.70
2023-02-06T07:01:22.791Z,77.00
2023-02-06T07:02:52.377Z,94.00
2023-02-06T07:04:42.420Z,73.10
2023-02-06T07:10:28.609Z,102.10
2023-02-06T07:12:27.932Z,87.90
2023-02-06T07:16:29.056Z,114.50
2023-02-06T07:23:09.403Z,60.40
2023-02-06T07:24:41.430Z,74.00
2023-02-06T07:26:29.648Z,61.70
2023-02-06T07:29:08.475Z,76.30
2023-02-06T07:30:36.815Z,82.80
2023-02-06T07:33:29.462Z,71.80
2023-02-06T07:34:58.220Z,72.80
2023-02-06T07:37:40.987Z,68.50
2023-02-06T07:41:23.086Z,93.80
2023-02-06T07:43:14.294Z,77.50
2023-02-06T07:44:42.245Z,93.80
2023-02-06T07:47:49.764Z,80.60
2023-02-06T07:49:52.111Z,76.20
2023-02-06T07:51:20.498Z,86.50
2023-02-06T07:53:44.929Z,71.80
2023-02-06T07:57:05.730Z,98.40
2023-02-06T08:00:02.270Z,88.80
2023-02-06T08:02:00.455Z,77.40
2023-02-06T08:03:35.863Z,74.90
2023-02-06T08:05:25.277Z,71.10
2023-02-06T08:06:59.744Z,71.60
2023-02-06T08:15:03.621Z,60.80
2023-02-06T08:16:34.606Z,65.50
2023-02-06T08:22:58.515Z,62.50
2023-02-06T08:24:47.779Z,51.80
2023-02-06T08:26:17.043Z,52.10
2023-02-06T08:27:16.563Z,58.50
2023-02-06T08:28:16.617Z,54.20
2023-02-06T08:29:49.474Z,46.40
2023-02-06T08:32:43.502Z,44.00
2023-02-06T08:36:18.418Z,49.50
2023-02-06T08:37:47.685Z,39.90
2023-02-06T08:39:16.396Z,47.10
2023-02-06T08:41:07.122Z,51.70
2023-02-06T08:43:57.129Z,44.00
2023-02-06T08:50:24.136Z,45.80
2023-02-06T08:54:06.661Z,42.70
2023-02-06T08:55:35.620Z,44.60
2023-02-06T08:58:44.859Z,44.00
2023-02-06T09:00:45.462Z,44.10
2023-02-06T09:05:18.896Z,45.90
2023-02-06T09:11:23.741Z,32.50
2023-02-06T09:16:59.190Z,36.90
2023-02-06T09:20:17.507Z,33.90
2023-02-06T09:23:13.288Z,31.80
2023-02-06T09:28:29.446Z,25.40
2023-02-06T09:33:06.344Z,31.10
2023-02-06T09:40:26.321Z,29.20
2023-02-06T09:43:26.387Z,35.40
2023-02-06T09:44:58.378Z,42.90
2023-02-06T09:47:38.281Z,28.60
2023-02-06T09:49:36.768Z,37.10
2023-02-06T09:52:20.772Z,32.30
2023-02-06T09:55:16.950Z,25.30
2023-02-06T09:57:42.132Z,25.20
2023-02-06T10:01:10.914Z,31.50
2023-02-06T10:03:35.287Z,29.60
2023-02-06T10:06:30.032Z,22.60
2023-02-06T10:14:56.356Z,23.90
2023-02-06T10:18:28.801Z,22.20
2023-02-06T10:20:05.621Z,27.80
2023-02-06T10:22:45.055Z,22.60
2023-02-06T10:29:39.201Z,27.00
2023-02-06T10:34:15.060Z,19.20
2023-02-06T10:39:08.880Z,18.90
2023-02-06T10:41:29.492Z,21.80
2023-02-06T10:43:22.206Z,18.70
2023-02-06T10:46:48.456Z,22.60
2023-02-06T10:48:38.043Z,21.20
2023-02-06T10:50:30.688Z,23.50
2023-02-06T10:52:03.305Z,19.00
2023-02-06T10:54:41.447Z,22.60
2023-02-06T10:56:12.387Z,23.20
2023-02-06T10:58:30.068Z,22.70
2023-02-06T11:03:06.167Z,24.50
2023-02-06T11:04:59.156Z,20.60
2023-02-06T11:11:16.613Z,27.30
2023-02-06T11:13:49.210Z,26.10
2023-02-06T11:15:38.402Z,77.60
2023-02-06T11:18:38.107Z,20.70
2023-02-06T11:20:45.700Z,19.90
2023-02-06T11:22:52.611Z,23.80
2023-02-06T11:25:38.203Z,23.30
2023-02-06T11:34:59.621Z,18.40
2023-02-06T11:37:44.202Z,21.30
2023-02-06T11:40:21.953Z,24.90
2023-02-06T11:43:00.208Z,21.60
2023-02-06T11:48:35.217Z,27.00
2023-02-06T11:50:04.654Z,26.90
2023-02-06T11:51:35.467Z,19.60
2023-02-06T11:57:41.926Z,20.60
2023-02-06T12:01:37.686Z,22.50
2023-02-06T12:03:08.434Z,22.70
2023-02-06T12:06:57.122Z,15.70
2023-02-06T12:08:18.033Z,18.10
2023-02-06T12:08:57.062Z,20.80
2023-02-06T12:11:59.676Z,17.00
2023-02-06T12:16:56.310Z,14.90
2023-02-06T12:19:59.166Z,23.20
2023-02-06T12:23:18.783Z,16.30
2023-02-06T12:25:05.719Z,19.80
2023-02-06T12:26:35.681Z,22.10
2023-02-06T12:29:55.797Z,19.90
2023-02-06T12:31:23.079Z,23.80
2023-02-06T12:36:10.878Z,19.50
2023-02-06T12:38:26.998Z,21.30
2023-02-06T12:41:58.103Z,15.40
2023-02-06T12:44:46.730Z,17.20
2023-02-06T12:46:35.808Z,32.40
2023-02-06T12:49:24.280Z,21.90
2023-02-06T12:50:54.455Z,22.10
2023-02-06T12:52:53.293Z,20.90
2023-02-06T12:54:24.128Z,20.90
2023-02-06T12:58:45.549Z,19.60
2023-02-06T13:03:04.273Z,24.50
2023-02-06T13:04:34.077Z,24.30
2023-02-06T13:08:26.774Z,28.50
2023-02-06T13:10:24.616Z,21.70
2023-02-06T13:13:22.348Z,18.80
2023-02-06T13:16:33.923Z,16.20
2023-02-06T13:19:01.668Z,19.70
2023-02-06T13:22:04.518Z,23.60
2023-02-06T13:24:02.063Z,25.80
2023-02-06T13:25:51.106Z,19.80
2023-02-06T13:27:21.009Z,22.20
2023-02-06T13:30:11.460Z,25.90
2023-02-06T13:33:33.416Z,17.90
2023-02-06T13:35:22.108Z,27.90
2023-02-06T13:39:33.871Z,18.40
2023-02-06T13:42:01.511Z,20.00
2023-02-06T13:43:28.967Z,18.40
2023-02-06T13:49:03.024Z,21.50
2023-02-06T13:50:37.041Z,24.00
2023-02-06T13:51:37.052Z,20.50
2023-02-06T13:52:36.996Z,22.90
2023-02-06T13:54:11.684Z,18.60
2023-02-06T13:56:27.635Z,19.30
2023-02-06T14:00:47.773Z,22.40
2023-02-06T14:02:17.029Z,23.10
2023-02-06T14:04:47.081Z,16.80
2023-02-06T14:08:06.050Z,19.20
2023-02-06T14:10:25.410Z,17.80
2023-02-06T14:12:14.127Z,18.90
2023-02-06T14:13:43.269Z,21.90
2023-02-06T14:17:17.674Z,32.20
2023-02-06T14:18:46.132Z,25.50
2023-02-06T14:21:36.903Z,16.90
2023-02-06T14:24:47.789Z,15.20
2023-02-06T14:26:49.684Z,16.50
2023-02-06T14:28:20.268Z,17.50
2023-02-06T14:31:19.280Z,14.20
2023-02-06T14:32:46.259Z,15.60
2023-02-06T14:35:09.513Z,38.30
2023-02-06T14:36:31.377Z,34.30
2023-02-06T14:37:11.154Z,38.80
2023-02-06T14:38:13.912Z,24.40
2023-02-06T14:39:40.292Z,31.30
2023-02-06T14:41:07.530Z,12.60
2023-02-06T14:45:17.969Z,17.70
2023-02-06T14:49:05.311Z,14.30
2023-02-06T14:52:03.596Z,13.50
2023-02-06T14:55:36.034Z,17.40
2023-02-06T14:57:05.604Z,21.30
2023-02-06T14:58:33.554Z,17.40
2023-02-06T15:03:54.024Z,24.00
2023-02-06T15:06:09.892Z,50.40
2023-02-06T15:09:08.060Z,18.30
2023-02-06T15:11:47.790Z,16.60
2023-02-06T15:16:38.424Z,19.50
2023-02-06T15:20:59.779Z,18.00
2023-02-06T15:22:27.771Z,18.10
2023-02-06T15:24:17.402Z,17.90
2023-02-06T15:25:49.123Z,16.20
2023-02-06T15:29:51.404Z,19.00
2023-02-06T15:32:09.149Z,19.00
2023-02-06T15:35:26.756Z,18.90
2023-02-06T15:37:56.616Z,22.80
2023-02-06T15:40:10.087Z,17.60
2023-02-06T15:41:39.578Z,21.20
2023-02-06T15:44:51.280Z,19.50
2023-02-06T15:47:13.059Z,24.60
2023-02-06T15:49:42.981Z,24.20
2023-02-06T15:51:42.444Z,26.60
2023-02-06T15:54:14.106Z,23.00
2023-02-06T15:57:06.510Z,22.30
2023-02-06T15:59:28.677Z,22.00
2023-02-06T16:01:26.379Z,29.10
2023-02-06T16:07:28.047Z,20.20
2023-02-06T16:09:29.304Z,21.20
2023-02-06T16:14:25.201Z,28.30
2023-02-06T16:15:55.389Z,23.40
2023-02-06T16:18:43.958Z,25.60
2023-02-06T16:23:12.849Z,27.30
2023-02-06T16:26:57.864Z,18.60
2023-02-06T16:28:27.786Z,22.10
2023-02-06T16:32:06.396Z,28.90
2023-02-06T16:34:28.212Z,33.30
2023-02-06T16:36:38.455Z,35.40
2023-02-06T16:38:13.556Z,30.50
2023-02-06T16:41:01.419Z,23.80
2023-02-06T16:43:21.226Z,30.00
2023-02-06T16:47:47.427Z,29.20
2023-02-06T16:54:23.492Z,36.90
2023-02-06T16:57:21.761Z,34.70
2023-02-06T16:58:51.181Z,29.40
2023-02-06T17:01:21.161Z,30.60
2023-02-06T17:05:03.952Z,32.80
2023-02-06T17:09:17.834Z,31.70
2023-02-06T17:11:18.469Z,29.50
2023-02-06T17:12:48.468Z,31.10
2023-02-06T17:14:41.504Z,28.20
2023-02-06T17:17:04.084Z,31.60
2023-02-06T17:18:33.196Z,43.50
2023-02-06T17:20:03.466Z,45.30
2023-02-06T17:23:05.189Z,40.70
2023-02-06T17:25:07.661Z,42.00
2023-02-06T17:32:01.666Z,35.90
2023-02-06T17:34:29.819Z,30.20
2023-02-06T17:38:29.473Z,30.80
2023-02-06T17:40:25.337Z,31.60
2023-02-06T17:41:55.277Z,30.60
2023-02-06T17:43:55.826Z,28.40
2023-02-06T17:46:23.634Z,35.50
2023-02-06T17:48:54.236Z,34.40
2023-02-06T17:50:54.022Z,43.20
2023-02-06T17:52:20.953Z,33.80
2023-02-06T17:54:18.846Z,34.80
2023-02-06T17:58:34.939Z,37.90
2023-02-06T18:04:14.187Z,39.70
2023-02-06T18:12:56.848Z,54.50
2023-02-06T18:14:54.893Z,45.10
2023-02-06T18:16:23.937Z,49.20
2023-02-06T18:17:53.720Z,48.80
2023-02-06T18:19:25.642Z,45.80
2023-02-06T18:20:57.724Z,41.00
2023-02-06T18:30:23.909Z,43.30
2023-02-06T18:31:59.905Z,46.00
2023-02-06T18:34:53.170Z,47.30
2023-02-06T18:37:19.428Z,44.80
2023-02-06T18:39:08.465Z,47.20
2023-02-06T18:44:55.147Z,42.70
2023-02-06T18:48:40.537Z,34.10
2023-02-06T18:49:47.454Z,37.30
2023-02-06T18:51:35.481Z,39.00
2023-02-06T18:59:24.490Z,42.40
2023-02-06T19:01:55.941Z,32.60
2023-02-06T19:05:14.606Z,45.90
2023-02-06T19:08:53.670Z,45.60
2023-02-06T19:10:54.388Z,53.40
2023-02-06T19:14:12.572Z,37.70
2023-02-06T19:17:31.655Z,44.10
2023-02-06T19:19:18.485Z,41.70
2023-02-06T19:23:27.408Z,34.90
2023-02-06T19:26:54.485Z,35.20
2023-02-06T19:29:11.129Z,50.00
2023-02-06T19:31:30.924Z,42.00
2023-02-06T19:34:01.870Z,37.00
2023-02-06T19:38:29.776Z,34.60
2023-02-06T19:40:00.121Z,29.70
2023-02-06T19:41:32.282Z,28.20
2023-02-06T19:45:00.759Z,31.70
2023-02-06T19:48:32.004Z,33.60
2023-02-06T19:50:03.235Z,27.30
2023-02-06T19:51:32.878Z,33.20
2023-02-06T19:53:00.964Z,32.40
2023-02-06T19:58:42.060Z,24.20
2023-02-06T20:02:55.142Z,26.30
2023-02-06T20:05:15.342Z,35.10
2023-02-06T20:06:43.825Z,33.30
2023-02-06T20:09:34.148Z,29.30
2023-02-06T20:12:43.488Z,31.50
2023-02-06T20:14:15.868Z,34.10
2023-02-06T20:15:42.502Z,35.50
2023-02-06T20:18:40.362Z,37.10
2023-02-06T20:19:38.556Z,32.30
2023-02-06T20:20:38.712Z,32.90
2023-02-06T20:21:39.447Z,36.90
2023-02-06T20:23:07.743Z,33.10
2023-02-06T20:24:38.552Z,38.20
2023-02-06T20:26:07.052Z,37.90
2023-02-06T20:30:48.855Z,32.50
2023-02-06T20:32:16.088Z,45.70
2023-02-06T20:38:13.277Z,38.30
2023-02-06T20:40:05.112Z,38.90
2023-02-06T20:43:54.856Z,30.30
2023-02-06T20:45:24.370Z,30.20
2023-02-06T20:48:51.062Z,32.80
2023-02-06T20:50:47.277Z,38.10
2023-02-06T20:54:03.107Z,41.20
2023-02-06T20:57:10.492Z,31.00
2023-02-06T20:59:17.784Z,41.80
2023-02-06T21:03:01.251Z,39.60
2023-02-06T21:06:09.861Z,32.80
2023-02-06T21:08:29.104Z,30.30
2023-02-06T21:10:52.220Z,42.90
2023-02-06T21:17:17.288Z,36.20
2023-02-06T21:23:26.837Z,41.80
2023-02-06T21:25:53.556Z,42.60
2023-02-06T21:27:22.441Z,39.60
2023-02-06T21:31:43.392Z,53.10
2023-02-06T21:40:53.752Z,44.20
2023-02-06T21:45:06.003Z,42.70
2023-02-06T21:47:58.084Z,49.90
2023-02-06T21:50:19.059Z,42.80
2023-02-06T21:52:57.672Z,42.80
2023-02-06T21:55:21.170Z,54.70
2023-02-06T21:58:17.667Z,47.30
2023-02-06T22:02:45.202Z,57.30
2023-02-06T22:05:35.800Z,51.20
2023-02-06T22:07:10.555Z,48.30
2023-02-06T22:09:07.883Z,57.00
2023-02-06T22:11:37.797Z,48.10
2023-02-06T22:13:39.638Z,56.90
2023-02-06T22:16:20.993Z,49.00
2023-02-06T22:17:00.178Z,52.90
2023-02-06T22:17:59.875Z,56.10
2023-02-06T22:20:20.372Z,54.10
2023-02-06T22:21:49.481Z,57.00
2023-02-06T22:24:22.295Z,56.00
2023-02-06T22:25:48.508Z,60.00
2023-02-06T22:32:09.365Z,66.10
2023-02-06T22:34:30.241Z,56.70
2023-02-06T22:35:58.219Z,57.10
2023-02-06T22:37:51.781Z,61.80
2023-02-06T22:39:21.705Z,62.70
2023-02-06T22:40:50.720Z,68.20
2023-02-06T22:43:28.374Z,70.60
2023-02-06T22:44:58.374Z,65.40
2023-02-06T22:47:26.673Z,66.40
2023-02-06T22:49:20.273Z,61.40
2023-02-06T22:51:06.780Z,79.60
2023-02-06T22:53:19.408Z,72.10
2023-02-06T22:55:09.330Z,67.50
2023-02-06T22:59:05.785Z,73.20
2023-02-06T23:03:15.516Z,72.20
2023-02-06T23:05:12.957Z,66.70
2023-02-06T23:06:47.233Z,64.60
2023-02-06T23:09:11.084Z,65.50
2023-02-06T23:12:40.540Z,67.60
2023-02-06T23:16:55.958Z,60.10
2023-02-06T23:18:47.670Z,64.20
2023-02-06T23:21:08.922Z,58.80
2023-02-06T23:24:22.452Z,58.70
2023-02-06T23:25:52.935Z,56.00
2023-02-06T23:28:19.858Z,58.30
2023-02-06T23:29:51.166Z,52.90
2023-02-06T23:32:41.060Z,57.50
2023-02-06T23:37:43.405Z,49.80
2023-02-06T23:40:39.337Z,46.60
2023-02-06T23:43:00.094Z,52.80
2023-02-06T23:44:48.865Z,47.80
2023-02-06T23:53:37.284Z,46.80
2023-02-06T23:55:09.716Z,46.50
2023-02-06T23:56:39.973Z,48.00
2023-02-06T23:59:03.102Z,45.60
